Time;durP1;ratioP1;P1;durP2;ratioP2;P2;SDS_P1;SDS_P2;PMS_P1;PMS_P2;Temp;Humidity;BMP_temperature;BMP_pressure;BME280_temperature;BME280_humidity;BME280_pressure;Samples;Min_cycle;Max_cycle;Signal;HPM_P1;HPM_P2
2022/03/28 00:01:29;;;;;;;20.13;13.30;;;6.10;89.30;;;;;;5016579;28;20184;-91
2022/03/28 00:03:55;;;;;;;14.53;11.17;;;6.10;89.30;;;;;;5017050;28;20720;-91
2022/03/28 00:06:21;;;;;;;13.80;10.63;;;6.00;89.10;;;;;;5018211;28;20662;-92
2022/03/28 00:08:47;;;;;;;12.83;10.33;;;6.10;89.10;;;;;;5018455;28;20176;-91
2022/03/28 00:11:13;;;;;;;16.20;11.07;;;6.00;89.00;;;;;;5033442;28;20173;-91
2022/03/28 00:13:38;;;;;;;17.70;12.23;;;6.00;89.00;;;;;;5036370;28;20187;-91
2022/03/28 00:16:04;;;;;;;21.13;12.87;;;6.00;89.00;;;;;;5031538;28;20242;-91
2022/03/28 00:18:30;;;;;;;21.13;12.37;;;6.00;88.90;;;;;;5034839;28;20216;-92
2022/03/28 00:20:56;;;;;;;16.13;11.63;;;6.00;88.90;;;;;;5038326;28;20211;-91
2022/03/28 00:23:22;;;;;;;14.20;11.90;;;6.10;88.90;;;;;;5038779;28;20252;-91
2022/03/28 00:25:49;;;;;;;19.23;12.07;;;6.00;89.00;;;;;;5036230;28;20219;-91
2022/03/28 00:28:15;;;;;;;18.17;12.37;;;6.10;89.10;;;;;;5032094;28;20235;-91
2022/03/28 00:30:41;;;;;;;18.90;13.20;;;6.10;89.10;;;;;;5020548;28;20177;-91
2022/03/28 00:33:07;;;;;;;17.30;11.27;;;6.10;89.10;;;;;;5019558;28;20179;-91
2022/03/28 00:35:35;;;;;;;17.27;11.93;;;6.10;89.20;;;;;;5019789;28;20193;-91
2022/03/28 00:38:02;;;;;;;18.60;12.57;;;6.10;89.30;;;;;;5021712;28;20185;-92
2022/03/28 00:40:31;;;;;;;15.80;10.37;;;6.10;89.10;;;;;;5021364;28;20302;-92
2022/03/28 00:43:03;;;;;;;12.27;9.37;;;6.00;89.00;;;;;;5038826;28;20174;-93
2022/03/28 00:45:32;;;;;;;13.10;7.93;;;5.90;89.00;;;;;;5027815;28;20200;-93
2022/03/28 00:47:59;;;;;;;10.57;6.50;;;5.80;89.00;;;;;;5023288;28;20204;-93
2022/03/28 00:50:25;;;;;;;17.33;8.67;;;5.80;88.90;;;;;;5024249;28;20174;-91
2022/03/28 00:52:51;;;;;;;14.30;10.43;;;5.80;89.00;;;;;;5022389;28;20195;-91
2022/03/28 00:55:17;;;;;;;18.83;11.87;;;5.80;88.90;;;;;;5019157;28;20254;-93
2022/03/28 00:57:43;;;;;;;18.40;10.97;;;5.80;88.80;;;;;;5023164;28;20179;-92
2022/03/28 01:00:09;;;;;;;13.60;10.73;;;5.80;88.90;;;;;;5025315;28;20177;-92
2022/03/28 01:02:36;;;;;;;17.00;10.10;;;5.80;88.70;;;;;;5024601;28;20184;-92
2022/03/28 01:05:02;;;;;;;14.13;9.70;;;5.80;88.60;;;;;;5023090;28;20566;-92
2022/03/28 01:07:28;;;;;;;12.47;8.87;;;5.80;88.60;;;;;;5023206;28;20210;-92
2022/03/28 01:09:55;;;;;;;11.90;8.73;;;5.90;88.50;;;;;;5023296;28;20191;-92
2022/03/28 01:12:23;;;;;;;10.40;8.10;;;5.80;88.50;;;;;;5023152;28;20172;-93
2022/03/28 01:14:49;;;;;;;10.17;8.07;;;5.90;88.50;;;;;;5022379;28;20279;-92
2022/03/28 01:20:00;;;;;;;18.43;10.83;;;5.90;88.40;;;;;;5040936;28;20225;-91
2022/03/28 01:22:25;;;;;;;16.80;10.97;;;5.90;88.30;;;;;;5022477;28;20187;-92
2022/03/28 01:24:51;;;;;;;13.97;10.73;;;5.90;88.40;;;;;;5022726;28;20287;-92
2022/03/28 01:27:19;;;;;;;18.77;12.33;;;5.90;88.40;;;;;;5023249;28;20242;-92
2022/03/28 01:29:45;;;;;;;20.63;12.73;;;5.90;88.30;;;;;;5022496;28;20214;-93
2022/03/28 01:32:11;;;;;;;19.83;13.37;;;6.00;88.40;;;;;;5022003;28;20543;-92
2022/03/28 01:34:37;;;;;;;18.83;12.97;;;6.00;88.40;;;;;;5022923;28;20223;-93
2022/03/28 01:37:03;;;;;;;18.67;12.60;;;6.00;88.40;;;;;;5023237;28;20191;-91
2022/03/28 01:39:28;;;;;;;16.13;12.70;;;5.90;88.30;;;;;;5022140;28;20185;-92
2022/03/28 01:41:55;;;;;;;19.93;13.37;;;5.80;88.40;;;;;;5023567;28;20180;-91
2022/03/28 01:44:20;;;;;;;21.47;13.30;;;5.80;89.00;;;;;;5023052;28;20208;-90
2022/03/28 01:46:47;;;;;;;15.83;12.30;;;5.80;89.30;;;;;;5023947;28;20221;-92
2022/03/28 01:49:18;;;;;;;22.40;14.93;;;5.80;89.30;;;;;;5022180;28;20181;-92
2022/03/28 01:51:44;;;;;;;20.77;14.63;;;5.70;89.60;;;;;;5024916;28;20179;-93
2022/03/28 01:54:10;;;;;;;23.60;14.53;;;5.70;89.80;;;;;;5021990;28;20231;-92
2022/03/28 01:56:37;;;;;;;22.00;14.50;;;5.70;90.00;;;;;;5040042;28;20221;-91
2022/03/28 01:59:05;;;;;;;20.07;15.07;;;5.60;90.10;;;;;;5025395;28;20215;-92
2022/03/28 02:01:31;;;;;;;22.23;15.07;;;5.60;90.10;;;;;;5022493;28;20178;-92
2022/03/28 02:03:57;;;;;;;22.27;11.87;;;5.60;90.00;;;;;;5022863;28;20184;-92
2022/03/28 02:06:23;;;;;;;22.43;13.90;;;5.40;90.10;;;;;;5022478;28;20217;-92
2022/03/28 02:08:49;;;;;;;19.60;12.40;;;5.40;90.30;;;;;;5024148;28;20179;-93
2022/03/28 02:11:14;;;;;;;20.90;12.23;;;5.50;90.40;;;;;;5024748;28;20293;-92
2022/03/28 02:13:40;;;;;;;21.03;11.60;;;5.40;90.40;;;;;;5023577;28;20257;-92
2022/03/28 02:16:06;;;;;;;19.30;12.27;;;5.60;90.50;;;;;;5021387;28;20221;-92
2022/03/28 02:18:32;;;;;;;18.73;10.93;;;5.60;90.40;;;;;;5024131;28;20188;-92
2022/03/28 02:20:58;;;;;;;14.73;10.60;;;5.60;90.30;;;;;;5023694;28;20236;-92
2022/03/28 02:23:23;;;;;;;13.80;9.53;;;5.60;90.30;;;;;;5022741;28;20179;-93
2022/03/28 02:25:49;;;;;;;13.83;7.80;;;5.60;90.30;;;;;;5023718;28;20567;-92
2022/03/28 02:28:15;;;;;;;9.80;6.60;;;5.60;90.30;;;;;;5021424;28;20252;-92
2022/03/28 02:30:40;;;;;;;7.83;6.33;;;5.60;90.30;;;;;;5023388;28;20222;-91
2022/03/28 02:33:06;;;;;;;10.07;6.17;;;5.50;90.30;;;;;;5020783;28;20187;-91
2022/03/28 02:35:33;;;;;;;7.53;5.43;;;5.50;90.40;;;;;;5020873;28;20290;-92
2022/03/28 02:38:01;;;;;;;13.13;6.53;;;5.40;90.60;;;;;;5020936;28;20178;-91
2022/03/28 02:40:31;;;;;;;8.97;6.00;;;5.40;90.80;;;;;;5022603;28;20232;-92
2022/03/28 02:42:58;;;;;;;8.37;5.57;;;5.30;91.00;;;;;;5023172;28;20187;-92
2022/03/28 02:45:24;;;;;;;8.03;6.20;;;5.40;91.10;;;;;;5042349;28;20243;-91
2022/03/28 02:47:50;;;;;;;8.13;5.70;;;5.40;91.20;;;;;;5023122;28;20204;-91
2022/03/28 02:50:15;;;;;;;9.53;5.27;;;5.50;91.20;;;;;;5021928;28;20178;-91
2022/03/28 02:52:41;;;;;;;8.57;5.37;;;5.50;91.10;;;;;;5038777;28;20324;-92
2022/03/28 02:55:07;;;;;;;7.50;4.30;;;5.60;91.00;;;;;;5021269;28;20202;-91
2022/03/28 02:57:33;;;;;;;13.23;4.70;;;5.60;91.00;;;;;;5023128;28;20188;-92
2022/03/28 02:59:59;;;;;;;10.37;4.70;;;5.50;90.80;;;;;;5022655;28;20180;-92
2022/03/28 03:02:24;;;;;;;7.33;5.13;;;5.60;90.80;;;;;;5022233;28;20181;-92
2022/03/28 03:04:50;;;;;;;5.10;4.60;;;5.50;90.70;;;;;;5034702;28;20225;-94
2022/03/28 03:07:16;;;;;;;8.40;5.30;;;5.60;90.70;;;;;;5034568;28;20233;-93
2022/03/28 03:09:41;;;;;;;8.73;6.10;;;5.60;90.70;;;;;;5033785;28;20209;-93
2022/03/28 03:12:08;;;;;;;9.67;5.73;;;5.60;90.60;;;;;;5035150;28;20172;-93
2022/03/28 03:14:33;;;;;;;7.93;5.90;;;5.70;90.60;;;;;;5033649;28;20264;-93
2022/03/28 03:16:59;;;;;;;14.10;6.47;;;5.70;90.50;;;;;;5052048;28;20194;-93
2022/03/28 03:19:24;;;;;;;10.97;7.70;;;5.60;90.60;;;;;;5035158;28;20187;-93
2022/03/28 03:21:50;;;;;;;11.83;7.27;;;5.70;90.70;;;;;;5034363;28;20191;-93
2022/03/28 03:24:15;;;;;;;12.70;7.57;;;5.80;90.70;;;;;;5035859;28;20211;-93
2022/03/28 03:26:42;;;;;;;10.40;7.07;;;5.80;90.60;;;;;;5035750;28;20214;-93
2022/03/28 03:29:08;;;;;;;9.87;5.80;;;5.80;90.50;;;;;;5037328;28;20174;-92
2022/03/28 03:31:33;;;;;;;11.13;5.80;;;5.70;90.60;;;;;;5036371;28;20250;-93
2022/03/28 03:33:59;;;;;;;8.67;5.63;;;5.80;90.60;;;;;;5054644;28;20282;-92
2022/03/28 03:36:25;;;;;;;7.00;4.53;;;5.60;90.50;;;;;;5034851;28;20246;-92
2022/03/28 03:38:51;;;;;;;6.37;5.33;;;5.60;90.50;;;;;;5037237;28;20266;-92
2022/03/28 03:41:16;;;;;;;7.97;5.37;;;5.60;90.40;;;;;;5036612;28;20192;-92
2022/03/28 03:43:44;;;;;;;6.57;5.23;;;5.50;90.50;;;;;;5036804;28;20182;-93
2022/03/28 03:46:10;;;;;;;6.17;4.53;;;5.40;90.60;;;;;;5039241;28;20212;-93
2022/03/28 03:48:36;;;;;;;8.40;4.40;;;5.40;90.70;;;;;;5037068;28;20177;-92
2022/03/28 03:51:02;;;;;;;6.63;4.13;;;5.30;90.80;;;;;;5040936;28;20181;-93
2022/03/28 03:53:27;;;;;;;4.43;3.77;;;5.40;90.90;;;;;;5038694;28;20183;-93
2022/03/28 03:55:53;;;;;;;9.30;6.27;;;5.50;90.90;;;;;;5040530;28;20211;-93
2022/03/28 03:58:19;;;;;;;11.53;7.13;;;5.50;90.80;;;;;;5041632;28;20186;-93
2022/03/28 04:00:44;;;;;;;11.40;7.07;;;5.50;90.70;;;;;;5040082;28;20182;-93
2022/03/28 04:03:10;;;;;;;9.43;6.53;;;5.50;90.70;;;;;;5041095;28;20178;-92
2022/03/28 04:05:37;;;;;;;9.23;5.57;;;5.50;90.60;;;;;;5036757;28;20206;-92
2022/03/28 04:08:07;;;;;;;9.07;6.00;;;5.30;90.40;;;;;;5055820;28;20185;-92
2022/03/28 04:10:34;;;;;;;13.00;7.50;;;5.30;90.60;;;;;;5038318;28;20174;-92
2022/03/28 04:13:00;;;;;;;13.33;8.03;;;5.40;90.60;;;;;;5053767;28;20174;-92
2022/03/28 04:15:26;;;;;;;12.70;7.60;;;5.40;90.60;;;;;;5035133;28;20269;-93
2022/03/28 04:17:52;;;;;;;10.83;6.10;;;5.40;90.60;;;;;;5038597;28;20221;-92
2022/03/28 04:20:18;;;;;;;7.77;5.17;;;5.40;90.60;;;;;;5050821;28;20182;-93
2022/03/28 04:22:45;;;;;;;10.47;5.07;;;5.40;90.70;;;;;;5038991;28;20205;-92
2022/03/28 04:25:13;;;;;;;4.87;4.00;;;5.40;90.80;;;;;;5038337;28;20266;-92
2022/03/28 04:27:39;;;;;;;4.37;3.53;;;5.30;90.70;;;;;;5036760;28;20225;-92
2022/03/28 04:30:09;;;;;;;5.57;3.50;;;5.30;90.70;;;;;;5037395;28;20190;-92
2022/03/28 04:32:36;;;;;;;6.43;4.20;;;5.30;90.70;;;;;;5034237;28;20174;-91
2022/03/28 04:35:03;;;;;;;3.90;3.50;;;5.30;90.90;;;;;;5027348;28;20220;-92
2022/03/28 04:37:37;;;;;;;4.93;3.37;;;5.30;91.00;;;;;;5029265;28;20182;-91
2022/03/28 04:40:04;;;;;;;3.30;3.00;;;5.30;91.00;;;;;;5026026;28;20252;-91
2022/03/28 04:42:30;;;;;;;3.80;3.40;;;5.20;91.10;;;;;;5026018;28;20181;-93
2022/03/28 04:44:56;;;;;;;3.40;3.10;;;5.10;91.20;;;;;;5025710;28;20227;-93
2022/03/28 04:47:22;;;;;;;5.77;3.47;;;5.10;91.30;;;;;;5046150;28;20197;-93
2022/03/28 04:49:47;;;;;;;5.50;3.63;;;5.10;91.40;;;;;;5027316;28;20209;-92
2022/03/28 04:52:13;;;;;;;4.87;3.73;;;5.10;91.40;;;;;;5026600;28;20188;-93
2022/03/28 04:54:38;;;;;;;6.13;5.20;;;5.20;91.40;;;;;;5033022;28;20200;-93
2022/03/28 04:57:04;;;;;;;8.67;6.30;;;5.20;91.40;;;;;;5035365;28;20181;-93
2022/03/28 04:59:31;;;;;;;14.30;9.50;;;5.30;91.40;;;;;;5033370;28;20182;-92
2022/03/28 05:01:57;;;;;;;16.10;10.97;;;5.30;91.40;;;;;;5031438;28;20187;-92
2022/03/28 05:04:23;;;;;;;17.87;11.50;;;5.30;91.30;;;;;;5030464;28;20204;-92
2022/03/28 05:06:48;;;;;;;14.57;9.50;;;5.50;91.40;;;;;;5033227;28;20194;-93
2022/03/28 05:09:14;;;;;;;16.53;11.80;;;5.40;91.20;;;;;;5032533;28;20238;-92
2022/03/28 05:11:39;;;;;;;12.60;10.40;;;5.40;91.20;;;;;;5029025;28;20546;-92
2022/03/28 05:14:05;;;;;;;8.30;4.60;;;5.40;91.10;;;;;;5030961;28;20618;-92
2022/03/28 05:16:31;;;;;;;4.27;3.87;;;5.30;90.90;;;;;;5032023;28;20210;-92
2022/03/28 05:18:57;;;;;;;7.40;5.07;;;5.30;90.70;;;;;;5031071;28;20189;-92
2022/03/28 05:21:22;;;;;;;5.17;3.73;;;5.30;90.50;;;;;;5028775;28;20180;-92
2022/03/28 05:23:48;;;;;;;5.50;4.47;;;5.20;90.30;;;;;;5029639;28;20220;-92
2022/03/28 05:26:13;;;;;;;5.47;4.40;;;5.30;90.20;;;;;;5030614;28;20194;-91
2022/03/28 05:28:39;;;;;;;5.90;5.30;;;5.20;90.00;;;;;;5032940;28;20185;-93
2022/03/28 05:31:04;;;;;;;8.07;5.47;;;5.30;90.00;;;;;;5033036;28;20173;-93
2022/03/28 05:33:30;;;;;;;7.87;5.13;;;5.30;89.90;;;;;;5033024;28;20191;-93
2022/03/28 05:35:56;;;;;;;7.53;5.90;;;5.30;89.80;;;;;;5032485;28;20242;-92
2022/03/28 05:38:22;;;;;;;4.77;4.20;;;5.30;89.80;;;;;;5030924;28;20191;-93
2022/03/28 05:40:49;;;;;;;4.93;4.27;;;5.30;89.70;;;;;;5032925;28;20177;-92
2022/03/28 05:43:14;;;;;;;4.10;3.70;;;5.30;89.60;;;;;;5032699;28;20218;-92
2022/03/28 05:45:40;;;;;;;4.43;3.47;;;5.30;89.60;;;;;;5030834;28;20228;-93
2022/03/28 05:48:05;;;;;;;3.93;3.63;;;5.30;89.60;;;;;;5033527;28;20272;-93
2022/03/28 05:50:31;;;;;;;3.63;3.30;;;5.30;89.60;;;;;;5034535;28;20184;-92
2022/03/28 05:52:57;;;;;;;4.57;4.17;;;5.30;89.70;;;;;;5032933;28;20171;-93
2022/03/28 05:55:22;;;;;;;5.50;5.00;;;5.30;89.70;;;;;;5030380;28;20193;-92
2022/03/28 05:57:48;;;;;;;8.20;4.90;;;5.30;89.80;;;;;;5031990;28;20181;-93
2022/03/28 06:00:14;;;;;;;8.77;6.33;;;5.30;89.90;;;;;;5030714;28;20194;-92
2022/03/28 06:02:44;;;;;;;4.50;4.10;;;5.40;89.90;;;;;;5034985;28;20185;-92
2022/03/28 06:05:11;;;;;;;4.83;3.57;;;5.50;89.90;;;;;;5035033;28;20244;-92
2022/03/28 06:07:36;;;;;;;3.53;3.23;;;5.50;89.80;;;;;;5031106;28;20204;-92
2022/03/28 06:10:04;;;;;;;5.60;3.40;;;5.40;89.60;;;;;;5030326;28;20205;-93
2022/03/28 06:12:29;;;;;;;3.83;3.20;;;5.50;89.60;;;;;;5027628;28;20181;-91
2022/03/28 06:14:55;;;;;;;4.73;4.33;;;5.50;89.50;;;;;;5042798;28;20254;-91
2022/03/28 06:17:25;;;;;;;3.97;3.50;;;5.50;89.50;;;;;;5023832;28;20237;-92
2022/03/28 06:19:51;;;;;;;3.97;3.57;;;5.50;89.50;;;;;;5023995;28;20187;-92
2022/03/28 06:22:17;;;;;;;9.90;7.03;;;5.60;89.50;;;;;;5022795;28;20183;-92
2022/03/28 06:24:43;;;;;;;14.03;10.73;;;5.60;89.50;;;;;;5021632;28;20241;-90
2022/03/28 06:27:09;;;;;;;6.33;5.27;;;5.60;89.50;;;;;;5022606;28;20211;-92
2022/03/28 06:29:37;;;;;;;5.37;4.30;;;5.60;89.40;;;;;;5024418;28;20229;-91
2022/03/28 06:32:04;;;;;;;3.83;3.30;;;5.60;89.50;;;;;;5019372;28;20228;-91
2022/03/28 06:34:30;;;;;;;2.90;2.70;;;5.60;89.50;;;;;;5024487;28;20202;-91
2022/03/28 06:36:57;;;;;;;2.40;2.20;;;5.60;89.50;;;;;;5023859;28;20213;-91
2022/03/28 06:39:22;;;;;;;2.57;2.30;;;5.60;89.60;;;;;;5024277;28;20237;-92
2022/03/28 06:41:48;;;;;;;2.20;2.00;;;5.60;89.40;;;;;;5021753;28;20187;-91
2022/03/28 06:44:13;;;;;;;2.27;1.90;;;5.60;89.40;;;;;;5021061;28;20273;-92
2022/03/28 06:46:40;;;;;;;2.87;2.23;;;5.50;89.40;;;;;;5037550;28;20207;-93
2022/03/28 06:49:07;;;;;;;2.93;1.93;;;5.50;89.50;;;;;;5034156;28;20635;-91
2022/03/28 06:51:33;;;;;;;2.63;2.17;;;5.50;89.60;;;;;;5032326;28;20171;-92
2022/03/28 06:53:59;;;;;;;2.57;2.37;;;5.50;89.50;;;;;;5032846;28;20205;-92
2022/03/28 06:56:25;;;;;;;3.17;2.60;;;5.60;89.50;;;;;;5028722;28;20191;-91
2022/03/28 06:58:50;;;;;;;1.80;1.70;;;5.60;89.40;;;;;;5023403;28;20282;-92
2022/03/28 07:01:16;;;;;;;2.07;1.87;;;5.60;89.30;;;;;;5022399;28;20195;-91
2022/03/28 07:03:41;;;;;;;2.30;2.10;;;5.60;89.10;;;;;;5025531;28;20187;-91
2022/03/28 07:06:10;;;;;;;2.07;1.87;;;5.60;89.10;;;;;;5019706;28;20335;-91
2022/03/28 07:08:36;;;;;;;2.43;2.23;;;5.60;89.10;;;;;;5018716;28;20180;-91
2022/03/28 07:11:02;;;;;;;4.03;2.57;;;5.70;89.10;;;;;;5018613;28;20179;-92
2022/03/28 07:13:28;;;;;;;3.73;3.10;;;5.70;89.00;;;;;;5018450;28;20233;-92
2022/03/28 07:15:53;;;;;;;5.77;4.10;;;5.70;89.10;;;;;;5018167;28;20206;-91
2022/03/28 07:18:19;;;;;;;4.33;3.93;;;5.70;89.10;;;;;;5036166;28;20531;-91
2022/03/28 07:20:45;;;;;;;7.00;3.77;;;5.80;89.10;;;;;;5018363;28;20653;-91
2022/03/28 07:23:12;;;;;;;4.50;3.73;;;5.70;88.90;;;;;;5018007;28;20183;-91
2022/03/28 07:25:38;;;;;;;4.33;3.93;;;5.80;89.00;;;;;;5017876;28;20204;-91
2022/03/28 07:28:09;;;;;;;5.30;4.30;;;5.90;89.20;;;;;;5022463;28;20246;-92
2022/03/28 07:30:34;;;;;;;8.50;4.03;;;6.00;89.10;;;;;;5023568;28;20186;-90
2022/03/28 07:33:02;;;;;;;4.63;4.23;;;6.00;89.10;;;;;;5023983;28;20267;-92
2022/03/28 07:35:29;;;;;;;6.03;4.10;;;6.00;89.00;;;;;;5026090;28;20202;-92
2022/03/28 07:37:54;;;;;;;5.30;4.80;;;6.10;88.90;;;;;;5022300;28;20214;-92
2022/03/28 07:40:20;;;;;;;4.77;4.00;;;6.00;88.80;;;;;;5022351;28;20218;-91
2022/03/28 07:42:46;;;;;;;4.10;3.70;;;6.00;88.80;;;;;;5022302;28;20187;-92
2022/03/28 07:45:14;;;;;;;6.17;4.10;;;5.90;89.00;;;;;;5021449;28;20614;-92
2022/03/28 07:47:42;;;;;;;4.50;3.87;;;6.00;89.10;;;;;;5021543;28;20219;-90
2022/03/28 07:50:09;;;;;;;6.80;4.77;;;6.00;89.10;;;;;;5022542;28;20186;-92
2022/03/28 07:52:35;;;;;;;5.93;4.47;;;5.90;89.00;;;;;;5020963;28;20207;-91
2022/03/28 07:55:01;;;;;;;7.23;4.20;;;5.90;89.10;;;;;;5021614;28;20195;-92
2022/03/28 07:57:27;;;;;;;5.43;4.57;;;5.90;89.10;;;;;;5020584;28;20238;-92
2022/03/28 07:59:53;;;;;;;8.07;6.17;;;6.00;89.20;;;;;;5020518;28;20211;-91
2022/03/28 08:02:18;;;;;;;10.40;6.57;;;6.00;89.10;;;;;;5018268;28;20184;-91
2022/03/28 08:04:45;;;;;;;8.27;5.60;;;6.10;89.10;;;;;;5021736;28;20666;-93
2022/03/28 08:07:11;;;;;;;6.93;5.57;;;6.10;89.10;;;;;;5026295;28;20208;-90
2022/03/28 08:09:38;;;;;;;7.33;5.50;;;6.20;89.10;;;;;;5026541;28;20188;-91
2022/03/28 08:12:05;;;;;;;9.97;7.07;;;6.20;89.10;;;;;;5024028;28;20177;-92
2022/03/28 08:14:31;;;;;;;9.10;6.80;;;6.30;89.00;;;;;;5019414;28;20204;-90
2022/03/28 08:16:57;;;;;;;12.87;7.07;;;6.20;89.00;;;;;;5020163;28;20204;-92
2022/03/28 08:19:24;;;;;;;11.77;7.90;;;6.30;88.90;;;;;;5027683;28;20550;-93
2022/03/28 08:21:50;;;;;;;8.70;7.40;;;6.30;88.90;;;;;;5036679;28;20187;-93
2022/03/28 08:24:16;;;;;;;10.70;8.00;;;6.30;88.60;;;;;;5030666;28;20184;-92
2022/03/28 08:26:42;;;;;;;10.20;8.40;;;6.30;88.80;;;;;;5042617;28;20212;-92
2022/03/28 08:29:08;;;;;;;9.53;7.53;;;6.30;88.70;;;;;;5019758;28;20187;-90
2022/03/28 08:31:33;;;;;;;11.73;7.73;;;6.20;88.20;;;;;;5040330;28;20251;-92
2022/03/28 08:33:59;;;;;;;10.97;8.00;;;6.30;88.40;;;;;;5029083;28;20185;-91
2022/03/28 08:36:25;;;;;;;12.87;7.97;;;6.30;88.30;;;;;;5026877;28;20548;-92
2022/03/28 08:38:51;;;;;;;12.60;7.87;;;6.30;88.00;;;;;;5026768;28;20179;-92
2022/03/28 08:41:18;;;;;;;9.77;7.40;;;6.50;88.00;;;;;;5033858;28;20184;-93
2022/03/28 08:43:45;;;;;;;8.67;6.80;;;6.50;87.80;;;;;;5024750;28;20184;-93
2022/03/28 08:46:15;;;;;;;6.83;6.13;;;6.60;87.50;;;;;;5032181;28;20205;-92
2022/03/28 08:48:41;;;;;;;8.43;5.97;;;6.60;87.20;;;;;;5037649;28;20170;-91
2022/03/28 08:51:13;;;;;;;9.47;6.60;;;6.60;87.00;;;;;;5037306;28;20200;-92
2022/03/28 08:53:39;;;;;;;9.43;6.03;;;6.80;86.80;;;;;;5021443;28;20630;-92
2022/03/28 08:56:07;;;;;;;8.50;5.60;;;6.80;86.70;;;;;;5036688;28;20203;-91
2022/03/28 08:58:34;;;;;;;9.70;5.27;;;6.90;86.60;;;;;;5040261;28;20165;-92
2022/03/28 09:01:00;;;;;;;4.83;3.93;;;7.00;86.30;;;;;;5033352;28;20165;-90
2022/03/28 09:03:40;;;;;;;4.63;3.73;;;7.00;84.10;;;;;;5038062;28;20188;-91
2022/03/28 09:06:42;;;;;;;7.43;4.50;;;6.90;83.00;;;;;;5032447;28;20291;-90
2022/03/28 09:09:21;;;;;;;5.63;4.90;;;7.10;83.50;;;;;;5029410;28;20519;-93
2022/03/28 09:11:51;;;;;;;12.23;5.90;;;7.30;83.60;;;;;;5043649;28;20165;-94
2022/03/28 09:14:28;;;;;;;8.60;6.73;;;7.50;83.20;;;;;;5026164;28;20196;-92
2022/03/28 09:17:13;;;;;;;12.80;9.80;;;7.30;81.30;;;;;;5026266;28;20246;-89
2022/03/28 09:19:54;;;;;;;13.03;9.30;;;7.40;82.30;;;;;;5029726;28;20245;-93
2022/03/28 09:22:25;;;;;;;9.60;7.10;;;7.60;82.30;;;;;;5037450;28;20199;-93
2022/03/28 09:24:57;;;;;;;8.13;5.83;;;7.80;81.90;;;;;;5024112;28;20203;-91
2022/03/28 09:27:25;;;;;;;7.83;5.47;;;7.90;81.80;;;;;;5021461;28;20227;-91
2022/03/28 09:30:07;;;;;;;5.60;4.90;;;8.00;81.20;;;;;;5022065;28;20627;-91
2022/03/28 09:32:35;;;;;;;8.03;4.87;;;8.10;80.80;;;;;;5021749;28;20631;-91
2022/03/28 09:35:01;;;;;;;7.37;4.60;;;7.80;79.80;;;;;;5023393;28;20243;-91
2022/03/28 09:37:28;;;;;;;8.37;5.70;;;7.90;80.60;;;;;;5021332;28;20666;-91
2022/03/28 09:39:54;;;;;;;7.90;5.87;;;7.90;80.20;;;;;;5021799;28;20181;-90
2022/03/28 09:42:19;;;;;;;8.07;5.60;;;7.80;79.40;;;;;;5189899;22;20229;-91
2022/03/28 09:44:48;;;;;;;6.53;5.70;;;8.10;80.30;;;;;;5026458;28;20177;-90
2022/03/28 09:47:20;;;;;;;8.03;5.10;;;8.20;79.90;;;;;;5043579;28;20196;-92
2022/03/28 09:49:49;;;;;;;5.40;4.90;;;8.10;79.30;;;;;;5048114;28;20249;-90
2022/03/28 09:52:17;;;;;;;5.43;4.23;;;8.30;78.80;;;;;;5023430;28;20243;-92
2022/03/28 09:54:50;;;;;;;6.60;4.53;;;8.30;78.80;;;;;;5019068;28;20228;-89
2022/03/28 09:57:23;;;;;;;6.87;4.77;;;8.10;78.40;;;;;;5029712;28;20414;-91
2022/03/28 09:59:48;;;;;;;5.47;4.23;;;8.00;79.30;;;;;;5032162;28;20179;-92
2022/03/28 10:02:23;;;;;;;5.10;4.20;;;8.30;78.90;;;;;;5030132;28;20276;-91
2022/03/28 10:04:52;;;;;;;4.77;3.53;;;8.50;78.00;;;;;;5038460;28;20275;-90
2022/03/28 10:07:19;;;;;;;8.07;3.83;;;8.20;78.10;;;;;;5037291;28;20204;-92
2022/03/28 10:09:45;;;;;;;5.53;4.63;;;8.40;78.70;;;;;;5031749;28;20197;-90
2022/03/28 10:12:11;;;;;;;4.07;3.57;;;8.60;78.00;;;;;;5032173;28;20181;-92
2022/03/28 10:14:37;;;;;;;5.80;3.43;;;8.60;78.10;;;;;;5018928;28;20338;-88
2022/03/28 10:17:04;;;;;;;4.07;3.27;;;8.90;77.80;;;;;;5034312;28;20175;-87
2022/03/28 10:19:37;;;;;;;4.87;3.50;;;8.90;77.70;;;;;;5034417;28;20191;-87
2022/03/28 10:22:08;;;;;;;5.87;3.73;;;9.10;77.60;;;;;;5016458;28;20636;-87
2022/03/28 10:24:35;;;;;;;13.50;4.10;;;9.20;76.00;;;;;;5016284;28;20192;-86
2022/03/28 10:27:02;;;;;;;9.17;3.53;;;9.30;76.30;;;;;;5035620;28;20204;-87
2022/03/28 10:29:42;;;;;;;5.00;3.97;;;9.30;75.90;;;;;;5018643;28;20204;-87
2022/03/28 10:32:13;;;;;;;6.13;3.47;;;9.30;75.60;;;;;;5020218;28;20179;-86
2022/03/28 10:34:40;;;;;;;6.00;3.70;;;9.30;75.60;;;;;;5019602;28;20550;-87
2022/03/28 10:37:35;;;;;;;7.10;3.57;;;9.40;75.20;;;;;;5037621;28;20230;-87
2022/03/28 10:40:27;;;;;;;4.50;3.70;;;9.70;75.10;;;;;;5019471;28;20188;-87
2022/03/28 10:43:11;;;;;;;5.27;3.47;;;9.80;74.40;;;;;;5037381;28;20193;-87
2022/03/28 10:46:00;;;;;;;5.20;3.33;;;9.80;74.30;;;;;;5037356;28;20197;-87
2022/03/28 10:48:44;;;;;;;6.77;3.13;;;9.60;74.40;;;;;;5019594;28;20200;-87
2022/03/28 10:51:11;;;;;;;3.53;3.10;;;9.70;75.10;;;;;;5019065;28;20238;-89
2022/03/28 10:53:51;;;;;;;5.30;3.30;;;9.60;75.80;;;;;;5018234;28;20612;-86
2022/03/28 10:56:18;;;;;;;8.63;4.23;;;9.80;75.00;;;;;;5018580;28;20200;-87
2022/03/28 10:58:53;;;;;;;6.10;3.70;;;9.80;74.70;;;;;;5017961;28;20184;-87
2022/03/28 11:01:20;;;;;;;12.17;4.10;;;10.00;74.80;;;;;;5036768;28;20247;-88
2022/03/28 11:03:51;;;;;;;5.83;3.67;;;10.10;73.40;;;;;;5019199;28;20175;-88
2022/03/28 11:06:18;;;;;;;11.60;4.40;;;10.00;73.50;;;;;;5018349;28;20270;-87
2022/03/28 11:08:57;;;;;;;7.20;3.90;;;10.00;74.40;;;;;;5067863;22;20235;-90
2022/03/28 11:11:25;;;;;;;7.40;4.37;;;10.10;74.00;;;;;;5052577;28;20634;-91
2022/03/28 11:13:57;;;;;;;7.77;3.73;;;10.20;73.80;;;;;;5052037;28;20172;-90
2022/03/28 11:16:43;;;;;;;5.40;4.10;;;10.30;72.90;;;;;;5051904;28;20203;-90
2022/03/28 11:19:29;;;;;;;9.67;4.20;;;10.40;71.90;;;;;;5051900;28;20283;-90
2022/03/28 11:21:58;;;;;;;7.37;3.93;;;10.30;71.50;;;;;;5051935;28;20160;-89
2022/03/28 11:24:45;;;;;;;9.70;5.23;;;10.30;72.00;;;;;;5051867;28;20176;-90
2022/03/28 11:27:14;;;;;;;6.37;4.00;;;10.30;72.50;;;;;;5051780;28;20199;-90
2022/03/28 11:29:41;;;;;;;7.83;4.80;;;9.90;71.90;;;;;;5051800;28;20195;-90
2022/03/28 11:32:08;;;;;;;7.00;4.47;;;10.00;71.80;;;;;;5051929;28;20172;-92
2022/03/28 11:34:34;;;;;;;11.87;4.93;;;10.20;73.00;;;;;;5053091;28;20180;-93
2022/03/28 11:37:03;;;;;;;8.50;4.93;;;9.90;72.70;;;;;;5051777;28;20226;-90
2022/03/28 11:39:31;;;;;;;9.17;5.37;;;10.00;73.20;;;;;;5051607;28;20199;-90
2022/03/28 11:41:58;;;;;;;7.53;4.67;;;10.20;73.80;;;;;;5051690;28;20180;-90
2022/03/28 11:44:25;;;;;;;6.10;3.73;;;10.20;73.00;;;;;;5052911;28;20172;-90
2022/03/28 11:46:55;;;;;;;8.50;4.80;;;10.00;73.80;;;;;;5051948;28;20682;-90
2022/03/28 11:49:21;;;;;;;8.10;5.57;;;10.00;73.20;;;;;;5052749;28;20550;-90
2022/03/28 11:51:48;;;;;;;11.70;5.80;;;10.10;73.90;;;;;;5051659;28;20179;-90
2022/03/28 11:54:16;;;;;;;8.60;5.90;;;10.30;72.10;;;;;;5051819;28;20172;-90
2022/03/28 11:59:29;;;;;;;9.23;5.63;;;10.30;71.60;;;;;;5052933;28;20202;-89
2022/03/28 12:02:01;;;;;;;8.13;5.77;;;10.30;71.80;;;;;;5051525;28;20176;-90
2022/03/28 12:04:27;;;;;;;12.60;7.00;;;10.20;71.80;;;;;;5051667;28;20168;-88
2022/03/28 12:06:53;;;;;;;8.70;6.47;;;10.00;72.20;;;;;;5055706;28;20745;-88
2022/03/28 12:09:20;;;;;;;9.73;6.90;;;9.90;73.10;;;;;;5056481;28;20208;-89
2022/03/28 12:11:58;;;;;;;13.00;7.27;;;10.10;73.00;;;;;;5055538;28;20259;-90
2022/03/28 12:14:24;;;;;;;10.43;7.43;;;10.30;71.70;;;;;;5055209;28;20172;-90
2022/03/28 12:16:57;;;;;;;9.13;7.10;;;10.20;72.50;;;;;;5055273;28;20180;-90
2022/03/28 12:19:28;;;;;;;11.80;7.73;;;10.00;72.70;;;;;;5056399;28;20192;-90
2022/03/28 12:21:56;;;;;;;11.83;6.93;;;10.10;73.00;;;;;;5055298;28;20355;-91
2022/03/28 12:24:25;;;;;;;10.00;6.63;;;9.90;72.80;;;;;;5055942;28;20664;-90
2022/03/28 12:26:53;;;;;;;9.73;7.47;;;9.80;73.40;;;;;;5055310;28;20204;-90
2022/03/28 12:29:19;;;;;;;11.87;6.97;;;10.00;73.40;;;;;;5055233;28;20192;-90
2022/03/28 12:31:48;;;;;;;11.37;8.43;;;9.70;72.30;;;;;;5055305;28;20169;-90
2022/03/28 12:34:17;;;;;;;8.60;7.27;;;9.50;74.00;;;;;;5055996;28;20180;-90
2022/03/28 12:36:43;;;;;;;11.23;8.27;;;9.60;74.20;;;;;;5054898;28;20175;-90
2022/03/28 12:39:11;;;;;;;9.73;7.97;;;9.60;73.90;;;;;;5054716;28;20206;-90
2022/03/28 12:41:40;;;;;;;12.97;7.40;;;9.40;73.30;;;;;;5054688;28;20197;-90
2022/03/28 12:44:15;;;;;;;11.30;8.40;;;9.30;73.90;;;;;;5054806;28;20209;-90
2022/03/28 12:46:41;;;;;;;11.57;9.20;;;9.10;74.20;;;;;;5054523;28;20631;-90
2022/03/28 12:49:16;;;;;;;14.50;8.73;;;9.20;74.70;;;;;;5054626;28;20196;-90
2022/03/28 12:51:41;;;;;;;14.10;9.57;;;9.30;74.70;;;;;;5056440;28;20173;-90
2022/03/28 12:54:08;;;;;;;15.57;9.17;;;9.10;75.30;;;;;;5054597;28;20665;-90
2022/03/28 12:56:46;;;;;;;14.20;9.40;;;9.20;75.40;;;;;;5055698;28;20171;-91
2022/03/28 12:59:20;;;;;;;16.73;9.17;;;9.40;75.10;;;;;;5055567;28;20199;-90